sensor_id;sensor_type;location;lat;lon;timestamp;P1;durP1;ratioP1;P2;durP2;ratioP2
45344;SDS011;31078;48.304;11.896;2023-01-23T00:00:41;37.28;;;16.30;;
45344;SDS011;31078;48.304;11.896;2023-01-23T00:03:12;42.70;;;18.20;;
45344;SDS011;31078;48.304;11.896;2023-01-23T00:05:38;42.92;;;17.25;;
45344;SDS011;31078;48.304;11.896;2023-01-23T00:08:05;36.85;;;16.05;;
45344;SDS011;31078;48.304;11.896;2023-01-23T00:10:33;36.08;;;16.50;;
45344;SDS011;31078;48.304;11.896;2023-01-23T00:12:59;37.33;;;15.95;;
45344;SDS011;31078;48.304;11.896;2023-01-23T00:15:26;37.10;;;15.65;;
45344;SDS011;31078;48.304;11.896;2023-01-23T00:17:52;39.25;;;15.90;;
45344;SDS011;31078;48.304;11.896;2023-01-23T00:20:19;35.55;;;16.10;;
45344;SDS011;31078;48.304;11.896;2023-01-23T00:22:46;36.90;;;15.82;;
45344;SDS011;31078;48.304;11.896;2023-01-23T00:25:12;38.35;;;16.85;;
45344;SDS011;31078;48.304;11.896;2023-01-23T00:27:40;41.13;;;17.67;;
45344;SDS011;31078;48.304;11.896;2023-01-23T00:30:07;41.30;;;18.17;;
45344;SDS011;31078;48.304;11.896;2023-01-23T00:32:35;41.17;;;17.10;;
45344;SDS011;31078;48.304;11.896;2023-01-23T00:35:01;36.38;;;16.85;;
45344;SDS011;31078;48.304;11.896;2023-01-23T00:37:28;35.72;;;15.23;;
45344;SDS011;31078;48.304;11.896;2023-01-23T00:39:55;38.55;;;16.17;;
45344;SDS011;31078;48.304;11.896;2023-01-23T00:42:21;35.50;;;15.90;;
45344;SDS011;31078;48.304;11.896;2023-01-23T00:44:49;37.42;;;15.48;;
45344;SDS011;31078;48.304;11.896;2023-01-23T00:47:16;38.95;;;15.77;;
45344;SDS011;31078;48.304;11.896;2023-01-23T00:49:42;36.25;;;15.55;;
45344;SDS011;31078;48.304;11.896;2023-01-23T00:52:09;35.40;;;16.35;;
45344;SDS011;31078;48.304;11.896;2023-01-23T00:54:36;37.25;;;16.30;;
45344;SDS011;31078;48.304;11.896;2023-01-23T00:57:03;37.47;;;16.45;;
45344;SDS011;31078;48.304;11.896;2023-01-23T00:59:30;35.63;;;15.63;;
45344;SDS011;31078;48.304;11.896;2023-01-23T01:01:57;38.67;;;16.23;;
45344;SDS011;31078;48.304;11.896;2023-01-23T01:04:24;39.53;;;17.55;;
45344;SDS011;31078;48.304;11.896;2023-01-23T01:06:50;38.90;;;17.05;;
45344;SDS011;31078;48.304;11.896;2023-01-23T01:09:17;33.38;;;15.77;;
45344;SDS011;31078;48.304;11.896;2023-01-23T01:11:44;35.17;;;17.13;;
45344;SDS011;31078;48.304;11.896;2023-01-23T01:14:10;33.78;;;16.42;;
45344;SDS011;31078;48.304;11.896;2023-01-23T01:16:37;35.85;;;16.27;;
45344;SDS011;31078;48.304;11.896;2023-01-23T01:19:10;39.30;;;17.80;;
45344;SDS011;31078;48.304;11.896;2023-01-23T01:21:38;42.85;;;19.50;;
45344;SDS011;31078;48.304;11.896;2023-01-23T01:24:05;39.58;;;17.48;;
45344;SDS011;31078;48.304;11.896;2023-01-23T01:26:31;36.80;;;17.27;;
45344;SDS011;31078;48.304;11.896;2023-01-23T01:28:58;35.33;;;16.65;;
45344;SDS011;31078;48.304;11.896;2023-01-23T01:31:25;35.88;;;16.98;;
45344;SDS011;31078;48.304;11.896;2023-01-23T01:33:51;35.88;;;17.00;;
45344;SDS011;31078;48.304;11.896;2023-01-23T01:36:20;37.65;;;17.02;;
45344;SDS011;31078;48.304;11.896;2023-01-23T01:38:48;37.47;;;17.20;;
45344;SDS011;31078;48.304;11.896;2023-01-23T01:41:15;38.63;;;17.75;;
45344;SDS011;31078;48.304;11.896;2023-01-23T01:43:43;34.90;;;16.95;;
45344;SDS011;31078;48.304;11.896;2023-01-23T01:46:16;38.22;;;17.30;;
45344;SDS011;31078;48.304;11.896;2023-01-23T01:48:45;37.97;;;16.65;;
45344;SDS011;31078;48.304;11.896;2023-01-23T01:51:17;38.03;;;17.40;;
45344;SDS011;31078;48.304;11.896;2023-01-23T01:53:51;35.63;;;17.02;;
45344;SDS011;31078;48.304;11.896;2023-01-23T01:58:50;34.40;;;15.32;;
45344;SDS011;31078;48.304;11.896;2023-01-23T02:01:18;36.50;;;16.15;;
45344;SDS011;31078;48.304;11.896;2023-01-23T02:03:45;38.50;;;16.75;;
45344;SDS011;31078;48.304;11.896;2023-01-23T02:06:13;33.38;;;15.80;;
45344;SDS011;31078;48.304;11.896;2023-01-23T02:08:43;37.97;;;16.13;;
45344;SDS011;31078;48.304;11.896;2023-01-23T02:11:13;42.67;;;17.58;;
45344;SDS011;31078;48.304;11.896;2023-01-23T02:13:42;38.45;;;17.75;;
45344;SDS011;31078;48.304;11.896;2023-01-23T02:16:10;36.85;;;17.25;;
45344;SDS011;31078;48.304;11.896;2023-01-23T02:18:40;36.33;;;17.02;;
45344;SDS011;31078;48.304;11.896;2023-01-23T02:21:09;38.20;;;16.70;;
45344;SDS011;31078;48.304;11.896;2023-01-23T02:26:34;39.38;;;17.63;;
45344;SDS011;31078;48.304;11.896;2023-01-23T02:29:05;38.78;;;17.10;;
45344;SDS011;31078;48.304;11.896;2023-01-23T02:31:32;40.88;;;17.48;;
45344;SDS011;31078;48.304;11.896;2023-01-23T02:33:59;36.42;;;17.73;;
45344;SDS011;31078;48.304;11.896;2023-01-23T02:36:27;37.38;;;16.90;;
45344;SDS011;31078;48.304;11.896;2023-01-23T02:38:57;41.78;;;18.58;;
45344;SDS011;31078;48.304;11.896;2023-01-23T02:41:31;42.78;;;18.85;;
45344;SDS011;31078;48.304;11.896;2023-01-23T02:44:01;38.55;;;17.25;;
45344;SDS011;31078;48.304;11.896;2023-01-23T02:46:30;36.00;;;17.60;;
45344;SDS011;31078;48.304;11.896;2023-01-23T02:48:59;36.80;;;17.05;;
45344;SDS011;31078;48.304;11.896;2023-01-23T02:51:26;41.08;;;17.88;;
45344;SDS011;31078;48.304;11.896;2023-01-23T02:53:53;38.28;;;17.27;;
45344;SDS011;31078;48.304;11.896;2023-01-23T02:56:19;36.75;;;16.52;;
45344;SDS011;31078;48.304;11.896;2023-01-23T02:58:46;39.60;;;17.33;;
45344;SDS011;31078;48.304;11.896;2023-01-23T03:01:32;36.95;;;17.05;;
45344;SDS011;31078;48.304;11.896;2023-01-23T03:04:00;35.97;;;16.70;;
45344;SDS011;31078;48.304;11.896;2023-01-23T03:06:28;40.60;;;18.20;;
45344;SDS011;31078;48.304;11.896;2023-01-23T03:09:00;42.00;;;17.60;;
45344;SDS011;31078;48.304;11.896;2023-01-23T03:11:34;37.33;;;17.23;;
45344;SDS011;31078;48.304;11.896;2023-01-23T03:14:02;41.28;;;17.30;;
45344;SDS011;31078;48.304;11.896;2023-01-23T03:16:29;39.03;;;17.52;;
45344;SDS011;31078;48.304;11.896;2023-01-23T03:18:57;43.03;;;17.90;;
45344;SDS011;31078;48.304;11.896;2023-01-23T03:21:29;40.78;;;18.50;;
45344;SDS011;31078;48.304;11.896;2023-01-23T03:23:56;43.45;;;18.33;;
45344;SDS011;31078;48.304;11.896;2023-01-23T03:26:22;41.03;;;18.73;;
45344;SDS011;31078;48.304;11.896;2023-01-23T03:28:50;43.30;;;17.92;;
45344;SDS011;31078;48.304;11.896;2023-01-23T03:31:34;38.58;;;17.90;;
45344;SDS011;31078;48.304;11.896;2023-01-23T03:34:02;42.13;;;18.30;;
45344;SDS011;31078;48.304;11.896;2023-01-23T03:36:28;46.58;;;19.25;;
45344;SDS011;31078;48.304;11.896;2023-01-23T03:38:55;42.95;;;18.95;;
45344;SDS011;31078;48.304;11.896;2023-01-23T03:41:38;43.28;;;18.85;;
45344;SDS011;31078;48.304;11.896;2023-01-23T03:44:06;42.22;;;19.05;;
45344;SDS011;31078;48.304;11.896;2023-01-23T03:46:33;47.70;;;19.42;;
45344;SDS011;31078;48.304;11.896;2023-01-23T03:49:01;46.65;;;19.67;;
45344;SDS011;31078;48.304;11.896;2023-01-23T03:51:28;42.97;;;19.23;;
45344;SDS011;31078;48.304;11.896;2023-01-23T03:53:54;41.35;;;18.77;;
45344;SDS011;31078;48.304;11.896;2023-01-23T03:56:21;46.70;;;20.17;;
45344;SDS011;31078;48.304;11.896;2023-01-23T03:58:48;41.50;;;18.48;;
45344;SDS011;31078;48.304;11.896;2023-01-23T04:01:14;42.63;;;18.63;;
45344;SDS011;31078;48.304;11.896;2023-01-23T04:03:41;45.78;;;19.77;;
45344;SDS011;31078;48.304;11.896;2023-01-23T04:06:09;49.55;;;20.20;;
45344;SDS011;31078;48.304;11.896;2023-01-23T04:08:35;45.75;;;18.02;;
45344;SDS011;31078;48.304;11.896;2023-01-23T04:11:03;45.67;;;19.73;;
45344;SDS011;31078;48.304;11.896;2023-01-23T04:13:31;42.53;;;18.55;;
45344;SDS011;31078;48.304;11.896;2023-01-23T04:15:58;42.40;;;19.45;;
45344;SDS011;31078;48.304;11.896;2023-01-23T04:18:25;45.63;;;19.92;;
45344;SDS011;31078;48.304;11.896;2023-01-23T04:20:51;52.58;;;21.40;;
45344;SDS011;31078;48.304;11.896;2023-01-23T04:23:20;48.05;;;20.63;;
45344;SDS011;31078;48.304;11.896;2023-01-23T04:25:47;48.22;;;20.70;;
45344;SDS011;31078;48.304;11.896;2023-01-23T04:28:14;41.15;;;19.73;;
45344;SDS011;31078;48.304;11.896;2023-01-23T04:30:41;45.80;;;20.58;;
45344;SDS011;31078;48.304;11.896;2023-01-23T04:33:07;46.45;;;20.15;;
45344;SDS011;31078;48.304;11.896;2023-01-23T04:35:34;47.92;;;20.10;;
45344;SDS011;31078;48.304;11.896;2023-01-23T04:38:01;45.83;;;20.23;;
45344;SDS011;31078;48.304;11.896;2023-01-23T04:40:29;42.90;;;19.30;;
45344;SDS011;31078;48.304;11.896;2023-01-23T04:42:55;46.35;;;20.10;;
45344;SDS011;31078;48.304;11.896;2023-01-23T04:45:22;46.25;;;19.55;;
45344;SDS011;31078;48.304;11.896;2023-01-23T04:47:48;41.55;;;18.02;;
45344;SDS011;31078;48.304;11.896;2023-01-23T04:50:15;42.45;;;19.80;;
45344;SDS011;31078;48.304;11.896;2023-01-23T04:52:42;49.85;;;20.42;;
45344;SDS011;31078;48.304;11.896;2023-01-23T04:55:08;43.80;;;19.70;;
45344;SDS011;31078;48.304;11.896;2023-01-23T04:57:37;48.25;;;19.52;;
45344;SDS011;31078;48.304;11.896;2023-01-23T05:00:04;50.20;;;23.08;;
45344;SDS011;31078;48.304;11.896;2023-01-23T05:02:31;42.28;;;20.85;;
45344;SDS011;31078;48.304;11.896;2023-01-23T05:04:58;47.83;;;22.08;;
45344;SDS011;31078;48.304;11.896;2023-01-23T05:07:24;49.33;;;22.27;;
45344;SDS011;31078;48.304;11.896;2023-01-23T05:09:51;50.70;;;23.25;;
45344;SDS011;31078;48.304;11.896;2023-01-23T05:12:18;45.90;;;20.58;;
45344;SDS011;31078;48.304;11.896;2023-01-23T05:14:45;44.53;;;20.27;;
45344;SDS011;31078;48.304;11.896;2023-01-23T05:17:12;46.20;;;19.55;;
45344;SDS011;31078;48.304;11.896;2023-01-23T05:19:39;51.83;;;23.02;;
45344;SDS011;31078;48.304;11.896;2023-01-23T05:22:05;49.58;;;21.52;;
45344;SDS011;31078;48.304;11.896;2023-01-23T05:24:32;48.10;;;21.50;;
45344;SDS011;31078;48.304;11.896;2023-01-23T05:26:59;50.70;;;22.88;;
45344;SDS011;31078;48.304;11.896;2023-01-23T05:29:25;49.67;;;21.08;;
45344;SDS011;31078;48.304;11.896;2023-01-23T05:31:53;46.92;;;20.70;;
45344;SDS011;31078;48.304;11.896;2023-01-23T05:34:20;49.20;;;22.02;;
45344;SDS011;31078;48.304;11.896;2023-01-23T05:36:47;50.72;;;22.08;;
45344;SDS011;31078;48.304;11.896;2023-01-23T05:39:13;52.20;;;20.10;;
45344;SDS011;31078;48.304;11.896;2023-01-23T05:41:40;52.80;;;21.42;;
45344;SDS011;31078;48.304;11.896;2023-01-23T05:44:06;49.40;;;21.35;;
45344;SDS011;31078;48.304;11.896;2023-01-23T05:46:33;57.78;;;23.70;;
45344;SDS011;31078;48.304;11.896;2023-01-23T05:49:01;53.90;;;22.90;;
45344;SDS011;31078;48.304;11.896;2023-01-23T05:51:27;57.05;;;23.02;;
45344;SDS011;31078;48.304;11.896;2023-01-23T05:53:58;57.63;;;23.95;;
45344;SDS011;31078;48.304;11.896;2023-01-23T05:56:25;63.00;;;25.25;;
45344;SDS011;31078;48.304;11.896;2023-01-23T05:58:52;55.10;;;23.88;;
45344;SDS011;31078;48.304;11.896;2023-01-23T06:01:19;67.40;;;25.70;;
45344;SDS011;31078;48.304;11.896;2023-01-23T06:03:46;62.20;;;24.80;;
45344;SDS011;31078;48.304;11.896;2023-01-23T06:06:14;57.13;;;23.17;;
45344;SDS011;31078;48.304;11.896;2023-01-23T06:08:43;56.35;;;22.92;;
45344;SDS011;31078;48.304;11.896;2023-01-23T06:11:09;70.07;;;26.60;;
45344;SDS011;31078;48.304;11.896;2023-01-23T06:13:36;68.82;;;26.55;;
45344;SDS011;31078;48.304;11.896;2023-01-23T06:16:03;67.82;;;26.80;;
45344;SDS011;31078;48.304;11.896;2023-01-23T06:18:30;59.78;;;23.77;;
45344;SDS011;31078;48.304;11.896;2023-01-23T06:20:57;54.92;;;23.50;;
45344;SDS011;31078;48.304;11.896;2023-01-23T06:23:26;53.53;;;22.45;;
45344;SDS011;31078;48.304;11.896;2023-01-23T06:25:57;49.88;;;22.40;;
45344;SDS011;31078;48.304;11.896;2023-01-23T06:30:53;55.97;;;21.77;;
45344;SDS011;31078;48.304;11.896;2023-01-23T06:33:20;59.70;;;22.70;;
45344;SDS011;31078;48.304;11.896;2023-01-23T06:35:46;55.08;;;22.88;;
45344;SDS011;31078;48.304;11.896;2023-01-23T06:38:13;58.22;;;22.77;;
45344;SDS011;31078;48.304;11.896;2023-01-23T06:40:41;67.85;;;25.98;;
45344;SDS011;31078;48.304;11.896;2023-01-23T06:43:09;56.75;;;23.80;;
45344;SDS011;31078;48.304;11.896;2023-01-23T06:45:36;59.72;;;23.42;;
45344;SDS011;31078;48.304;11.896;2023-01-23T06:48:02;62.95;;;24.85;;
45344;SDS011;31078;48.304;11.896;2023-01-23T06:50:29;62.97;;;25.02;;
45344;SDS011;31078;48.304;11.896;2023-01-23T06:52:56;57.72;;;23.65;;
45344;SDS011;31078;48.304;11.896;2023-01-23T06:55:22;57.17;;;23.58;;
45344;SDS011;31078;48.304;11.896;2023-01-23T06:57:50;58.92;;;24.65;;
45344;SDS011;31078;48.304;11.896;2023-01-23T07:00:17;57.25;;;22.83;;
45344;SDS011;31078;48.304;11.896;2023-01-23T07:02:44;54.97;;;22.17;;
45344;SDS011;31078;48.304;11.896;2023-01-23T07:05:11;47.95;;;21.05;;
45344;SDS011;31078;48.304;11.896;2023-01-23T07:07:38;51.33;;;20.60;;
45344;SDS011;31078;48.304;11.896;2023-01-23T07:10:05;46.95;;;20.20;;
45344;SDS011;31078;48.304;11.896;2023-01-23T07:12:32;47.08;;;19.83;;
45344;SDS011;31078;48.304;11.896;2023-01-23T07:15:01;42.15;;;19.50;;
45344;SDS011;31078;48.304;11.896;2023-01-23T07:17:31;42.95;;;20.20;;
45344;SDS011;31078;48.304;11.896;2023-01-23T07:19:57;49.67;;;21.92;;
45344;SDS011;31078;48.304;11.896;2023-01-23T07:22:24;42.35;;;19.48;;
45344;SDS011;31078;48.304;11.896;2023-01-23T07:24:50;39.00;;;18.42;;
45344;SDS011;31078;48.304;11.896;2023-01-23T07:27:17;41.55;;;17.77;;
45344;SDS011;31078;48.304;11.896;2023-01-23T07:29:44;37.00;;;17.13;;
45344;SDS011;31078;48.304;11.896;2023-01-23T07:32:12;40.47;;;17.23;;
45344;SDS011;31078;48.304;11.896;2023-01-23T07:34:38;39.30;;;17.00;;
45344;SDS011;31078;48.304;11.896;2023-01-23T07:37:05;37.90;;;16.73;;
45344;SDS011;31078;48.304;11.896;2023-01-23T07:39:32;37.45;;;16.48;;
45344;SDS011;31078;48.304;11.896;2023-01-23T07:41:58;37.50;;;16.48;;
45344;SDS011;31078;48.304;11.896;2023-01-23T07:44:25;38.75;;;17.65;;
45344;SDS011;31078;48.304;11.896;2023-01-23T07:46:52;36.50;;;16.40;;
45344;SDS011;31078;48.304;11.896;2023-01-23T07:49:20;38.72;;;17.65;;
45344;SDS011;31078;48.304;11.896;2023-01-23T07:51:46;37.80;;;17.33;;
45344;SDS011;31078;48.304;11.896;2023-01-23T07:54:13;39.50;;;18.70;;
45344;SDS011;31078;48.304;11.896;2023-01-23T07:56:39;39.35;;;17.80;;
45344;SDS011;31078;48.304;11.896;2023-01-23T07:59:06;37.55;;;17.25;;
45344;SDS011;31078;48.304;11.896;2023-01-23T08:01:33;35.75;;;16.85;;
45344;SDS011;31078;48.304;11.896;2023-01-23T08:03:59;36.90;;;16.80;;
45344;SDS011;31078;48.304;11.896;2023-01-23T08:06:27;38.30;;;17.85;;
45344;SDS011;31078;48.304;11.896;2023-01-23T08:08:54;40.50;;;18.40;;
45344;SDS011;31078;48.304;11.896;2023-01-23T08:11:21;43.28;;;18.00;;
45344;SDS011;31078;48.304;11.896;2023-01-23T08:13:50;36.40;;;17.33;;
45344;SDS011;31078;48.304;11.896;2023-01-23T08:16:17;38.08;;;16.65;;
45344;SDS011;31078;48.304;11.896;2023-01-23T08:18:43;40.42;;;17.83;;
45344;SDS011;31078;48.304;11.896;2023-01-23T08:21:10;34.33;;;16.23;;
45344;SDS011;31078;48.304;11.896;2023-01-23T08:23:38;36.13;;;17.13;;
45344;SDS011;31078;48.304;11.896;2023-01-23T08:26:06;35.78;;;16.00;;
45344;SDS011;31078;48.304;11.896;2023-01-23T08:28:34;36.88;;;16.63;;
45344;SDS011;31078;48.304;11.896;2023-01-23T08:31:01;39.45;;;17.13;;
45344;SDS011;31078;48.304;11.896;2023-01-23T08:33:29;34.58;;;15.88;;
45344;SDS011;31078;48.304;11.896;2023-01-23T08:35:57;36.65;;;16.77;;
45344;SDS011;31078;48.304;11.896;2023-01-23T08:38:24;35.25;;;15.73;;
45344;SDS011;31078;48.304;11.896;2023-01-23T08:40:52;39.53;;;17.30;;
45344;SDS011;31078;48.304;11.896;2023-01-23T08:43:20;35.45;;;15.70;;
45344;SDS011;31078;48.304;11.896;2023-01-23T08:45:47;36.92;;;15.88;;
45344;SDS011;31078;48.304;11.896;2023-01-23T08:48:15;41.83;;;17.00;;
45344;SDS011;31078;48.304;11.896;2023-01-23T08:50:42;37.92;;;16.42;;
45344;SDS011;31078;48.304;11.896;2023-01-23T08:53:09;35.60;;;15.77;;
45344;SDS011;31078;48.304;11.896;2023-01-23T08:55:35;37.42;;;16.92;;
45344;SDS011;31078;48.304;11.896;2023-01-23T08:58:04;37.60;;;17.00;;
45344;SDS011;31078;48.304;11.896;2023-01-23T09:00:31;36.47;;;16.63;;
45344;SDS011;31078;48.304;11.896;2023-01-23T09:02:58;35.15;;;15.35;;
45344;SDS011;31078;48.304;11.896;2023-01-23T09:05:25;35.45;;;15.82;;
45344;SDS011;31078;48.304;11.896;2023-01-23T09:07:52;32.58;;;15.15;;
45344;SDS011;31078;48.304;11.896;2023-01-23T09:10:18;36.25;;;16.17;;
45344;SDS011;31078;48.304;11.896;2023-01-23T09:12:45;33.40;;;15.25;;
45344;SDS011;31078;48.304;11.896;2023-01-23T09:15:13;34.92;;;16.10;;
45344;SDS011;31078;48.304;11.896;2023-01-23T09:17:40;32.13;;;14.30;;
45344;SDS011;31078;48.304;11.896;2023-01-23T09:20:07;32.13;;;15.18;;
45344;SDS011;31078;48.304;11.896;2023-01-23T09:22:34;31.95;;;14.20;;
45344;SDS011;31078;48.304;11.896;2023-01-23T09:25:04;32.55;;;15.93;;
45344;SDS011;31078;48.304;11.896;2023-01-23T09:27:32;28.42;;;13.98;;
45344;SDS011;31078;48.304;11.896;2023-01-23T09:29:58;32.83;;;14.27;;
45344;SDS011;31078;48.304;11.896;2023-01-23T09:32:26;35.30;;;15.10;;
45344;SDS011;31078;48.304;11.896;2023-01-23T09:34:53;32.88;;;14.60;;
45344;SDS011;31078;48.304;11.896;2023-01-23T09:37:20;33.33;;;15.02;;
45344;SDS011;31078;48.304;11.896;2023-01-23T09:39:46;30.67;;;14.73;;
45344;SDS011;31078;48.304;11.896;2023-01-23T09:42:13;32.40;;;14.60;;
45344;SDS011;31078;48.304;11.896;2023-01-23T09:44:43;31.95;;;15.70;;
45344;SDS011;31078;48.304;11.896;2023-01-23T09:47:13;31.73;;;14.30;;
45344;SDS011;31078;48.304;11.896;2023-01-23T09:52:13;30.85;;;14.63;;
45344;SDS011;31078;48.304;11.896;2023-01-23T09:54:44;29.67;;;14.60;;
45344;SDS011;31078;48.304;11.896;2023-01-23T09:57:14;32.13;;;13.73;;
45344;SDS011;31078;48.304;11.896;2023-01-23T09:59:45;31.98;;;14.05;;
45344;SDS011;31078;48.304;11.896;2023-01-23T10:02:17;29.05;;;14.43;;
45344;SDS011;31078;48.304;11.896;2023-01-23T10:04:46;26.45;;;12.45;;
45344;SDS011;31078;48.304;11.896;2023-01-23T10:07:19;30.48;;;14.23;;
45344;SDS011;31078;48.304;11.896;2023-01-23T10:10:05;27.27;;;13.73;;
45344;SDS011;31078;48.304;11.896;2023-01-23T10:12:46;29.45;;;13.52;;
45344;SDS011;31078;48.304;11.896;2023-01-23T10:15:24;30.92;;;13.45;;
45344;SDS011;31078;48.304;11.896;2023-01-23T10:18:03;31.08;;;14.50;;
45344;SDS011;31078;48.304;11.896;2023-01-23T10:23:44;27.83;;;13.52;;
45344;SDS011;31078;48.304;11.896;2023-01-23T10:26:22;26.65;;;13.68;;
45344;SDS011;31078;48.304;11.896;2023-01-23T10:28:53;26.30;;;13.23;;
45344;SDS011;31078;48.304;11.896;2023-01-23T10:31:28;30.95;;;14.02;;
45344;SDS011;31078;48.304;11.896;2023-01-23T10:34:04;29.38;;;13.50;;
45344;SDS011;31078;48.304;11.896;2023-01-23T10:36:37;28.75;;;13.85;;
45344;SDS011;31078;48.304;11.896;2023-01-23T10:39:14;31.83;;;14.95;;
45344;SDS011;31078;48.304;11.896;2023-01-23T10:41:45;26.80;;;13.05;;
45344;SDS011;31078;48.304;11.896;2023-01-23T10:44:12;30.58;;;14.00;;
45344;SDS011;31078;48.304;11.896;2023-01-23T10:46:44;29.13;;;13.00;;
45344;SDS011;31078;48.304;11.896;2023-01-23T10:49:25;33.22;;;14.98;;
45344;SDS011;31078;48.304;11.896;2023-01-23T10:51:53;29.05;;;13.93;;
45344;SDS011;31078;48.304;11.896;2023-01-23T10:54:25;30.33;;;14.07;;
45344;SDS011;31078;48.304;11.896;2023-01-23T10:56:55;25.52;;;12.70;;
45344;SDS011;31078;48.304;11.896;2023-01-23T10:59:28;26.73;;;13.32;;
45344;SDS011;31078;48.304;11.896;2023-01-23T11:02:03;26.33;;;12.60;;
45344;SDS011;31078;48.304;11.896;2023-01-23T11:04:44;28.92;;;13.95;;
45344;SDS011;31078;48.304;11.896;2023-01-23T11:07:13;30.33;;;14.25;;
45344;SDS011;31078;48.304;11.896;2023-01-23T11:12:25;28.15;;;13.57;;
45344;SDS011;31078;48.304;11.896;2023-01-23T11:17:45;26.80;;;13.27;;
45344;SDS011;31078;48.304;11.896;2023-01-23T11:20:20;36.00;;;15.80;;
45344;SDS011;31078;48.304;11.896;2023-01-23T11:22:59;26.80;;;14.30;;
45344;SDS011;31078;48.304;11.896;2023-01-23T11:25:32;27.38;;;13.82;;
45344;SDS011;31078;48.304;11.896;2023-01-23T11:28:12;32.28;;;14.43;;
45344;SDS011;31078;48.304;11.896;2023-01-23T11:30:48;25.90;;;13.30;;
45344;SDS011;31078;48.304;11.896;2023-01-23T11:33:21;31.63;;;14.88;;
45344;SDS011;31078;48.304;11.896;2023-01-23T11:36:01;27.52;;;13.43;;
45344;SDS011;31078;48.304;11.896;2023-01-23T11:38:34;29.48;;;14.43;;
45344;SDS011;31078;48.304;11.896;2023-01-23T11:48:49;28.17;;;13.32;;
45344;SDS011;31078;48.304;11.896;2023-01-23T11:51:26;29.02;;;13.98;;
45344;SDS011;31078;48.304;11.896;2023-01-23T11:54:01;37.35;;;15.57;;
45344;SDS011;31078;48.304;11.896;2023-01-23T11:56:42;40.60;;;15.20;;
45344;SDS011;31078;48.304;11.896;2023-01-23T11:59:19;29.88;;;14.20;;
45344;SDS011;31078;48.304;11.896;2023-01-23T12:02:14;39.90;;;15.95;;
45344;SDS011;31078;48.304;11.896;2023-01-23T12:05:09;36.80;;;16.05;;
45344;SDS011;31078;48.304;11.896;2023-01-23T12:07:49;25.92;;;13.95;;
45344;SDS011;31078;48.304;11.896;2023-01-23T12:10:30;28.88;;;14.43;;
45344;SDS011;31078;48.304;11.896;2023-01-23T12:13:09;27.83;;;13.35;;
45344;SDS011;31078;48.304;11.896;2023-01-23T12:15:48;27.20;;;12.98;;
45344;SDS011;31078;48.304;11.896;2023-01-23T12:18:29;28.85;;;13.57;;
45344;SDS011;31078;48.304;11.896;2023-01-23T12:21:10;28.15;;;13.55;;
45344;SDS011;31078;48.304;11.896;2023-01-23T12:23:56;33.42;;;15.52;;
45344;SDS011;31078;48.304;11.896;2023-01-23T12:26:34;32.17;;;14.25;;
45344;SDS011;31078;48.304;11.896;2023-01-23T12:29:28;29.58;;;14.25;;
45344;SDS011;31078;48.304;11.896;2023-01-23T12:32:12;31.02;;;14.32;;
45344;SDS011;31078;48.304;11.896;2023-01-23T12:35:02;32.15;;;15.15;;
45344;SDS011;31078;48.304;11.896;2023-01-23T12:37:48;29.88;;;14.65;;
45344;SDS011;31078;48.304;11.896;2023-01-23T12:40:25;30.40;;;15.60;;
45344;SDS011;31078;48.304;11.896;2023-01-23T12:42:58;29.40;;;14.73;;
45344;SDS011;31078;48.304;11.896;2023-01-23T12:45:29;35.60;;;15.38;;
45344;SDS011;31078;48.304;11.896;2023-01-23T12:48:00;32.13;;;16.98;;
45344;SDS011;31078;48.304;11.896;2023-01-23T12:50:34;30.38;;;14.38;;
45344;SDS011;31078;48.304;11.896;2023-01-23T12:53:07;25.80;;;14.27;;
45344;SDS011;31078;48.304;11.896;2023-01-23T12:55:37;25.25;;;12.55;;
45344;SDS011;31078;48.304;11.896;2023-01-23T12:58:08;26.48;;;13.52;;
45344;SDS011;31078;48.304;11.896;2023-01-23T13:00:43;27.67;;;13.40;;
45344;SDS011;31078;48.304;11.896;2023-01-23T13:03:26;23.65;;;12.77;;
45344;SDS011;31078;48.304;11.896;2023-01-23T13:06:02;27.27;;;13.33;;
45344;SDS011;31078;48.304;11.896;2023-01-23T13:08:41;29.83;;;13.77;;
45344;SDS011;31078;48.304;11.896;2023-01-23T13:11:17;27.88;;;13.63;;
45344;SDS011;31078;48.304;11.896;2023-01-23T13:14:19;27.67;;;13.55;;
45344;SDS011;31078;48.304;11.896;2023-01-23T13:16:49;27.13;;;12.88;;
45344;SDS011;31078;48.304;11.896;2023-01-23T13:19:21;28.23;;;13.52;;
45344;SDS011;31078;48.304;11.896;2023-01-23T13:22:15;25.67;;;13.07;;
45344;SDS011;31078;48.304;11.896;2023-01-23T13:24:50;28.55;;;14.15;;
45344;SDS011;31078;48.304;11.896;2023-01-23T13:27:37;25.50;;;13.60;;
45344;SDS011;31078;48.304;11.896;2023-01-23T13:36:25;24.80;;;13.40;;
45344;SDS011;31078;48.304;11.896;2023-01-23T13:39:03;27.55;;;14.02;;
45344;SDS011;31078;48.304;11.896;2023-01-23T13:41:49;32.65;;;14.52;;
45344;SDS011;31078;48.304;11.896;2023-01-23T13:44:19;25.13;;;13.88;;
45344;SDS011;31078;48.304;11.896;2023-01-23T13:46:56;27.05;;;14.00;;
45344;SDS011;31078;48.304;11.896;2023-01-23T13:49:53;29.02;;;14.02;;
45344;SDS011;31078;48.304;11.896;2023-01-23T13:52:30;29.55;;;13.20;;
45344;SDS011;31078;48.304;11.896;2023-01-23T13:55:19;30.35;;;14.75;;
45344;SDS011;31078;48.304;11.896;2023-01-23T13:58:08;28.83;;;13.95;;
45344;SDS011;31078;48.304;11.896;2023-01-23T14:00:36;26.85;;;13.00;;
45344;SDS011;31078;48.304;11.896;2023-01-23T14:03:12;29.48;;;14.98;;
45344;SDS011;31078;48.304;11.896;2023-01-23T14:06:06;26.90;;;13.98;;
45344;SDS011;31078;48.304;11.896;2023-01-23T14:08:44;24.65;;;13.73;;
45344;SDS011;31078;48.304;11.896;2023-01-23T14:11:12;26.92;;;13.60;;
45344;SDS011;31078;48.304;11.896;2023-01-23T14:13:46;31.13;;;15.20;;
45344;SDS011;31078;48.304;11.896;2023-01-23T14:16:14;29.85;;;14.10;;
45344;SDS011;31078;48.304;11.896;2023-01-23T14:21:16;26.15;;;13.65;;
45344;SDS011;31078;48.304;11.896;2023-01-23T14:23:47;28.38;;;14.73;;
45344;SDS011;31078;48.304;11.896;2023-01-23T14:26:15;28.65;;;14.23;;
45344;SDS011;31078;48.304;11.896;2023-01-23T14:28:52;28.58;;;14.05;;
45344;SDS011;31078;48.304;11.896;2023-01-23T14:31:22;28.08;;;14.55;;
45344;SDS011;31078;48.304;11.896;2023-01-23T14:33:59;29.58;;;14.45;;
45344;SDS011;31078;48.304;11.896;2023-01-23T14:36:27;28.20;;;14.55;;
45344;SDS011;31078;48.304;11.896;2023-01-23T14:38:56;27.65;;;13.35;;
45344;SDS011;31078;48.304;11.896;2023-01-23T14:41:25;26.98;;;13.85;;
45344;SDS011;31078;48.304;11.896;2023-01-23T14:43:57;30.23;;;14.63;;
45344;SDS011;31078;48.304;11.896;2023-01-23T14:46:30;28.80;;;14.43;;
45344;SDS011;31078;48.304;11.896;2023-01-23T14:48:59;31.10;;;15.02;;
45344;SDS011;31078;48.304;11.896;2023-01-23T14:51:27;32.03;;;15.02;;
45344;SDS011;31078;48.304;11.896;2023-01-23T14:53:55;32.33;;;16.35;;
45344;SDS011;31078;48.304;11.896;2023-01-23T14:56:24;32.65;;;15.50;;
45344;SDS011;31078;48.304;11.896;2023-01-23T14:58:54;33.25;;;15.65;;
45344;SDS011;31078;48.304;11.896;2023-01-23T15:01:26;34.67;;;16.42;;